sensor_id;sensor_type;location;lat;lon;timestamp;temperature;humidity
58638;DHT22;54976;51.510;7.522;2023-04-08T00:00:20;6.30;99.90
58638;DHT22;54976;51.510;7.522;2023-04-08T00:03:21;6.30;99.90
58638;DHT22;54976;51.510;7.522;2023-04-08T00:06:21;6.30;99.90
58638;DHT22;54976;51.510;7.522;2023-04-08T00:09:22;6.30;99.90
58638;DHT22;54976;51.510;7.522;2023-04-08T00:12:22;6.30;99.90
58638;DHT22;54976;51.510;7.522;2023-04-08T00:15:23;6.20;99.90
58638;DHT22;54976;51.510;7.522;2023-04-08T00:18:24;6.30;99.90
58638;DHT22;54976;51.510;7.522;2023-04-08T00:21:24;6.20;99.90
58638;DHT22;54976;51.510;7.522;2023-04-08T00:24:26;6.10;99.90
58638;DHT22;54976;51.510;7.522;2023-04-08T00:27:26;6.00;99.90
58638;DHT22;54976;51.510;7.522;2023-04-08T00:30:27;5.90;99.90
58638;DHT22;54976;51.510;7.522;2023-04-08T00:33:28;5.90;99.90
58638;DHT22;54976;51.510;7.522;2023-04-08T00:36:28;6.00;99.90
58638;DHT22;54976;51.510;7.522;2023-04-08T00:39:29;5.90;99.90
58638;DHT22;54976;51.510;7.522;2023-04-08T00:42:30;5.80;99.90
58638;DHT22;54976;51.510;7.522;2023-04-08T00:45:31;5.80;99.90
58638;DHT22;54976;51.510;7.522;2023-04-08T00:48:33;5.80;99.90
58638;DHT22;54976;51.510;7.522;2023-04-08T00:51:33;5.70;99.90
58638;DHT22;54976;51.510;7.522;2023-04-08T00:54:37;5.70;99.90
58638;DHT22;54976;51.510;7.522;2023-04-08T00:57:38;5.70;99.90
58638;DHT22;54976;51.510;7.522;2023-04-08T01:00:43;5.70;99.90
58638;DHT22;54976;51.510;7.522;2023-04-08T01:03:51;5.70;99.90
58638;DHT22;54976;51.510;7.522;2023-04-08T01:07:19;5.80;99.90
58638;DHT22;54976;51.510;7.522;2023-04-08T01:10:25;6.00;99.90
58638;DHT22;54976;51.510;7.522;2023-04-08T01:13:27;6.10;99.90
58638;DHT22;54976;51.510;7.522;2023-04-08T01:16:29;6.10;99.90
58638;DHT22;54976;51.510;7.522;2023-04-08T01:19:32;6.00;99.90
58638;DHT22;54976;51.510;7.522;2023-04-08T01:25:49;6.10;99.90
58638;DHT22;54976;51.510;7.522;2023-04-08T01:28:55;6.10;99.90
58638;DHT22;54976;51.510;7.522;2023-04-08T01:31:57;6.10;99.90
58638;DHT22;54976;51.510;7.522;2023-04-08T01:35:00;5.80;99.90
58638;DHT22;54976;51.510;7.522;2023-04-08T01:38:02;6.10;99.90
58638;DHT22;54976;51.510;7.522;2023-04-08T01:41:08;6.20;99.90
58638;DHT22;54976;51.510;7.522;2023-04-08T01:44:10;6.30;99.90
58638;DHT22;54976;51.510;7.522;2023-04-08T01:47:13;6.10;99.90
58638;DHT22;54976;51.510;7.522;2023-04-08T01:50:15;6.10;99.90
58638;DHT22;54976;51.510;7.522;2023-04-08T01:53:16;6.10;99.90
58638;DHT22;54976;51.510;7.522;2023-04-08T01:56:20;5.60;99.90
58638;DHT22;54976;51.510;7.522;2023-04-08T01:59:23;6.00;99.90
58638;DHT22;54976;51.510;7.522;2023-04-08T02:02:28;6.00;99.90
58638;DHT22;54976;51.510;7.522;2023-04-08T02:05:29;5.60;99.90
58638;DHT22;54976;51.510;7.522;2023-04-08T02:08:29;5.90;99.90
58638;DHT22;54976;51.510;7.522;2023-04-08T02:11:32;5.90;99.90
58638;DHT22;54976;51.510;7.522;2023-04-08T02:14:33;5.90;99.90
58638;DHT22;54976;51.510;7.522;2023-04-08T02:20:51;5.80;99.90
58638;DHT22;54976;51.510;7.522;2023-04-08T02:23:54;6.10;99.90
58638;DHT22;54976;51.510;7.522;2023-04-08T02:26:55;6.00;99.90
58638;DHT22;54976;51.510;7.522;2023-04-08T02:29:57;6.00;99.90
58638;DHT22;54976;51.510;7.522;2023-04-08T02:33:00;6.00;99.90
58638;DHT22;54976;51.510;7.522;2023-04-08T02:36:03;5.90;99.90
58638;DHT22;54976;51.510;7.522;2023-04-08T02:39:04;5.90;99.90
58638;DHT22;54976;51.510;7.522;2023-04-08T02:42:05;5.90;99.90
58638;DHT22;54976;51.510;7.522;2023-04-08T02:45:06;5.50;99.90
58638;DHT22;54976;51.510;7.522;2023-04-08T02:48:07;5.40;99.90
58638;DHT22;54976;51.510;7.522;2023-04-08T02:51:08;5.50;99.90
58638;DHT22;54976;51.510;7.522;2023-04-08T02:54:08;5.70;99.90
58638;DHT22;54976;51.510;7.522;2023-04-08T02:57:09;5.70;99.90
58638;DHT22;54976;51.510;7.522;2023-04-08T03:00:10;5.70;99.90
58638;DHT22;54976;51.510;7.522;2023-04-08T03:03:11;5.40;99.90
58638;DHT22;54976;51.510;7.522;2023-04-08T03:06:11;5.50;99.90
58638;DHT22;54976;51.510;7.522;2023-04-08T03:09:12;5.70;99.90
58638;DHT22;54976;51.510;7.522;2023-04-08T03:12:13;5.70;99.90
58638;DHT22;54976;51.510;7.522;2023-04-08T03:15:13;5.50;99.90
58638;DHT22;54976;51.510;7.522;2023-04-08T03:18:14;5.80;99.90
58638;DHT22;54976;51.510;7.522;2023-04-08T03:21:14;5.90;99.90
58638;DHT22;54976;51.510;7.522;2023-04-08T03:24:15;5.80;99.90
58638;DHT22;54976;51.510;7.522;2023-04-08T03:27:16;5.90;99.90
58638;DHT22;54976;51.510;7.522;2023-04-08T03:30:16;5.90;99.90
58638;DHT22;54976;51.510;7.522;2023-04-08T03:33:17;5.90;99.90
58638;DHT22;54976;51.510;7.522;2023-04-08T03:36:17;5.90;99.90
58638;DHT22;54976;51.510;7.522;2023-04-08T03:39:18;5.60;99.90
58638;DHT22;54976;51.510;7.522;2023-04-08T03:42:19;5.90;99.90
58638;DHT22;54976;51.510;7.522;2023-04-08T03:45:20;5.80;99.90
58638;DHT22;54976;51.510;7.522;2023-04-08T03:48:20;5.80;99.90
58638;DHT22;54976;51.510;7.522;2023-04-08T03:51:21;5.90;99.90
58638;DHT22;54976;51.510;7.522;2023-04-08T03:54:21;5.70;99.90
58638;DHT22;54976;51.510;7.522;2023-04-08T03:57:22;6.00;99.90
58638;DHT22;54976;51.510;7.522;2023-04-08T04:00:23;6.00;99.90
58638;DHT22;54976;51.510;7.522;2023-04-08T04:03:23;6.00;99.90
58638;DHT22;54976;51.510;7.522;2023-04-08T04:06:24;6.10;99.90
58638;DHT22;54976;51.510;7.522;2023-04-08T04:09:26;6.10;99.90
58638;DHT22;54976;51.510;7.522;2023-04-08T04:12:26;6.10;99.90
58638;DHT22;54976;51.510;7.522;2023-04-08T04:15:27;6.10;99.90
58638;DHT22;54976;51.510;7.522;2023-04-08T04:18:28;6.20;99.90
58638;DHT22;54976;51.510;7.522;2023-04-08T04:21:28;6.20;99.90
58638;DHT22;54976;51.510;7.522;2023-04-08T04:24:29;6.20;99.90
58638;DHT22;54976;51.510;7.522;2023-04-08T04:27:29;6.20;99.90
58638;DHT22;54976;51.510;7.522;2023-04-08T04:30:30;6.20;99.90
58638;DHT22;54976;51.510;7.522;2023-04-08T04:33:30;6.10;99.90
58638;DHT22;54976;51.510;7.522;2023-04-08T04:36:31;6.10;99.90
58638;DHT22;54976;51.510;7.522;2023-04-08T04:39:32;6.20;99.90
58638;DHT22;54976;51.510;7.522;2023-04-08T04:42:32;6.20;99.90
58638;DHT22;54976;51.510;7.522;2023-04-08T04:45:33;6.20;99.90
58638;DHT22;54976;51.510;7.522;2023-04-08T04:48:34;6.20;99.90
58638;DHT22;54976;51.510;7.522;2023-04-08T04:51:35;6.20;99.90
58638;DHT22;54976;51.510;7.522;2023-04-08T04:54:36;6.20;99.90
58638;DHT22;54976;51.510;7.522;2023-04-08T04:57:36;6.20;99.90
58638;DHT22;54976;51.510;7.522;2023-04-08T05:00:37;6.20;99.90
58638;DHT22;54976;51.510;7.522;2023-04-08T05:03:37;6.20;99.90
58638;DHT22;54976;51.510;7.522;2023-04-08T05:06:38;6.20;99.90
58638;DHT22;54976;51.510;7.522;2023-04-08T05:09:38;6.20;99.90
58638;DHT22;54976;51.510;7.522;2023-04-08T05:12:39;6.20;99.90
58638;DHT22;54976;51.510;7.522;2023-04-08T05:15:40;6.20;99.90
58638;DHT22;54976;51.510;7.522;2023-04-08T05:18:41;6.20;99.90
58638;DHT22;54976;51.510;7.522;2023-04-08T05:21:42;6.30;99.90
58638;DHT22;54976;51.510;7.522;2023-04-08T05:24:42;6.30;99.90
58638;DHT22;54976;51.510;7.522;2023-04-08T05:27:43;6.40;99.90
58638;DHT22;54976;51.510;7.522;2023-04-08T05:30:48;6.40;99.90
58638;DHT22;54976;51.510;7.522;2023-04-08T05:33:49;6.10;99.90
58638;DHT22;54976;51.510;7.522;2023-04-08T05:36:50;6.30;99.90
58638;DHT22;54976;51.510;7.522;2023-04-08T05:39:51;6.40;99.90
58638;DHT22;54976;51.510;7.522;2023-04-08T05:42:51;6.50;99.90
58638;DHT22;54976;51.510;7.522;2023-04-08T05:45:52;6.60;99.90
58638;DHT22;54976;51.510;7.522;2023-04-08T05:48:52;6.70;99.90
58638;DHT22;54976;51.510;7.522;2023-04-08T05:51:53;6.60;99.90
58638;DHT22;54976;51.510;7.522;2023-04-08T05:54:54;6.70;99.90
58638;DHT22;54976;51.510;7.522;2023-04-08T05:57:54;6.70;99.90
58638;DHT22;54976;51.510;7.522;2023-04-08T06:00:55;6.70;99.90
58638;DHT22;54976;51.510;7.522;2023-04-08T06:03:56;6.70;99.90
58638;DHT22;54976;51.510;7.522;2023-04-08T06:06:56;6.80;99.90
58638;DHT22;54976;51.510;7.522;2023-04-08T06:09:59;6.80;99.90
58638;DHT22;54976;51.510;7.522;2023-04-08T06:12:59;6.80;99.90
58638;DHT22;54976;51.510;7.522;2023-04-08T06:16:14;6.70;99.90
58638;DHT22;54976;51.510;7.522;2023-04-08T06:19:14;6.70;99.90
58638;DHT22;54976;51.510;7.522;2023-04-08T06:22:15;6.70;99.90
58638;DHT22;54976;51.510;7.522;2023-04-08T06:25:16;6.60;99.90
58638;DHT22;54976;51.510;7.522;2023-04-08T06:28:17;6.50;99.90
58638;DHT22;54976;51.510;7.522;2023-04-08T06:31:17;6.50;99.90
58638;DHT22;54976;51.510;7.522;2023-04-08T06:34:18;6.50;99.90
58638;DHT22;54976;51.510;7.522;2023-04-08T06:37:18;6.50;99.90
58638;DHT22;54976;51.510;7.522;2023-04-08T06:40:19;6.70;99.90
58638;DHT22;54976;51.510;7.522;2023-04-08T06:43:20;6.80;99.90
58638;DHT22;54976;51.510;7.522;2023-04-08T06:46:21;6.90;99.90
58638;DHT22;54976;51.510;7.522;2023-04-08T06:49:21;7.10;99.90
58638;DHT22;54976;51.510;7.522;2023-04-08T06:52:22;7.20;99.90
58638;DHT22;54976;51.510;7.522;2023-04-08T06:55:23;7.20;99.90
58638;DHT22;54976;51.510;7.522;2023-04-08T06:58:23;7.40;99.90
58638;DHT22;54976;51.510;7.522;2023-04-08T07:01:24;7.50;99.90
58638;DHT22;54976;51.510;7.522;2023-04-08T07:04:25;7.60;99.90
58638;DHT22;54976;51.510;7.522;2023-04-08T07:07:26;7.70;99.90
58638;DHT22;54976;51.510;7.522;2023-04-08T07:10:26;7.80;99.90
58638;DHT22;54976;51.510;7.522;2023-04-08T07:13:27;7.90;99.90
58638;DHT22;54976;51.510;7.522;2023-04-08T07:16:28;8.00;99.90
58638;DHT22;54976;51.510;7.522;2023-04-08T07:19:29;8.40;99.90
58638;DHT22;54976;51.510;7.522;2023-04-08T07:22:30;8.60;99.90
58638;DHT22;54976;51.510;7.522;2023-04-08T07:25:32;8.60;99.90
58638;DHT22;54976;51.510;7.522;2023-04-08T07:28:33;9.00;99.90
58638;DHT22;54976;51.510;7.522;2023-04-08T07:31:34;9.00;99.90
58638;DHT22;54976;51.510;7.522;2023-04-08T07:34:34;9.00;99.90
58638;DHT22;54976;51.510;7.522;2023-04-08T07:37:36;9.00;99.90
58638;DHT22;54976;51.510;7.522;2023-04-08T07:40:36;9.10;99.90
58638;DHT22;54976;51.510;7.522;2023-04-08T07:43:37;9.00;99.90
58638;DHT22;54976;51.510;7.522;2023-04-08T07:46:38;9.00;99.90
58638;DHT22;54976;51.510;7.522;2023-04-08T07:49:39;8.90;99.90
58638;DHT22;54976;51.510;7.522;2023-04-08T07:52:39;8.90;99.90
58638;DHT22;54976;51.510;7.522;2023-04-08T07:55:40;8.80;99.90
58638;DHT22;54976;51.510;7.522;2023-04-08T07:58:42;8.80;99.90
58638;DHT22;54976;51.510;7.522;2023-04-08T08:01:43;8.80;99.90
58638;DHT22;54976;51.510;7.522;2023-04-08T08:04:44;8.60;99.90
58638;DHT22;54976;51.510;7.522;2023-04-08T08:07:44;8.50;99.90
58638;DHT22;54976;51.510;7.522;2023-04-08T08:10:45;8.70;99.90
58638;DHT22;54976;51.510;7.522;2023-04-08T08:13:46;8.50;99.90
58638;DHT22;54976;51.510;7.522;2023-04-08T08:16:46;8.50;99.90
58638;DHT22;54976;51.510;7.522;2023-04-08T08:19:47;8.60;99.90
58638;DHT22;54976;51.510;7.522;2023-04-08T08:22:48;8.70;99.90
58638;DHT22;54976;51.510;7.522;2023-04-08T08:25:48;8.80;99.90
58638;DHT22;54976;51.510;7.522;2023-04-08T08:28:49;8.80;99.90
58638;DHT22;54976;51.510;7.522;2023-04-08T08:31:50;8.80;99.90
58638;DHT22;54976;51.510;7.522;2023-04-08T08:34:50;8.80;99.90
58638;DHT22;54976;51.510;7.522;2023-04-08T08:37:51;9.00;99.90
58638;DHT22;54976;51.510;7.522;2023-04-08T08:40:55;9.00;99.90
58638;DHT22;54976;51.510;7.522;2023-04-08T08:43:56;9.10;99.80
58638;DHT22;54976;51.510;7.522;2023-04-08T08:46:59;9.00;98.50
58638;DHT22;54976;51.510;7.522;2023-04-08T08:50:00;8.90;98.60
58638;DHT22;54976;51.510;7.522;2023-04-08T08:53:00;8.70;99.10
58638;DHT22;54976;51.510;7.522;2023-04-08T08:56:01;8.70;99.90
58638;DHT22;54976;51.510;7.522;2023-04-08T08:59:02;8.80;99.90
58638;DHT22;54976;51.510;7.522;2023-04-08T09:02:11;8.70;98.90
58638;DHT22;54976;51.510;7.522;2023-04-08T09:05:22;8.40;98.80
58638;DHT22;54976;51.510;7.522;2023-04-08T09:08:23;8.30;99.80
58638;DHT22;54976;51.510;7.522;2023-04-08T09:11:25;8.30;99.90
58638;DHT22;54976;51.510;7.522;2023-04-08T09:14:25;8.50;99.90
58638;DHT22;54976;51.510;7.522;2023-04-08T09:17:37;8.70;99.90
58638;DHT22;54976;51.510;7.522;2023-04-08T09:20:51;9.00;99.90
58638;DHT22;54976;51.510;7.522;2023-04-08T09:23:51;9.10;99.90
58638;DHT22;54976;51.510;7.522;2023-04-08T09:26:52;9.10;98.90
58638;DHT22;54976;51.510;7.522;2023-04-08T09:30:12;9.20;98.70
58638;DHT22;54976;51.510;7.522;2023-04-08T09:33:12;9.40;98.70
58638;DHT22;54976;51.510;7.522;2023-04-08T09:36:14;9.30;98.40
58638;DHT22;54976;51.510;7.522;2023-04-08T09:39:15;9.30;98.30
58638;DHT22;54976;51.510;7.522;2023-04-08T09:42:18;9.40;98.80
58638;DHT22;54976;51.510;7.522;2023-04-08T09:45:21;9.50;99.20
58638;DHT22;54976;51.510;7.522;2023-04-08T09:48:26;9.50;97.70
58638;DHT22;54976;51.510;7.522;2023-04-08T09:51:38;9.40;97.20
58638;DHT22;54976;51.510;7.522;2023-04-08T09:54:51;9.40;98.30
58638;DHT22;54976;51.510;7.522;2023-04-08T09:58:02;9.40;99.30
58638;DHT22;54976;51.510;7.522;2023-04-08T10:01:04;9.30;98.30
58638;DHT22;54976;51.510;7.522;2023-04-08T10:04:11;9.50;98.00
58638;DHT22;54976;51.510;7.522;2023-04-08T10:07:13;9.70;97.50
58638;DHT22;54976;51.510;7.522;2023-04-08T10:10:14;10.00;97.20
58638;DHT22;54976;51.510;7.522;2023-04-08T10:13:16;10.20;95.70
58638;DHT22;54976;51.510;7.522;2023-04-08T10:16:23;10.30;95.30
58638;DHT22;54976;51.510;7.522;2023-04-08T10:19:36;10.10;95.00
58638;DHT22;54976;51.510;7.522;2023-04-08T10:22:47;10.40;95.30
58638;DHT22;54976;51.510;7.522;2023-04-08T10:25:48;10.30;94.30
58638;DHT22;54976;51.510;7.522;2023-04-08T10:28:49;9.90;95.90
58638;DHT22;54976;51.510;7.522;2023-04-08T10:31:50;10.00;95.70
58638;DHT22;54976;51.510;7.522;2023-04-08T10:34:52;9.90;97.80
58638;DHT22;54976;51.510;7.522;2023-04-08T10:37:53;10.10;96.00
58638;DHT22;54976;51.510;7.522;2023-04-08T10:40:54;10.40;97.30
58638;DHT22;54976;51.510;7.522;2023-04-08T10:43:54;10.50;94.30
58638;DHT22;54976;51.510;7.522;2023-04-08T10:46:55;10.40;95.40
58638;DHT22;54976;51.510;7.522;2023-04-08T10:49:56;11.10;95.50
58638;DHT22;54976;51.510;7.522;2023-04-08T10:52:57;11.90;94.40
58638;DHT22;54976;51.510;7.522;2023-04-08T10:56:11;12.40;89.10
58638;DHT22;54976;51.510;7.522;2023-04-08T10:59:16;12.30;88.80
58638;DHT22;54976;51.510;7.522;2023-04-08T11:02:16;12.30;90.10
58638;DHT22;54976;51.510;7.522;2023-04-08T11:05:21;12.30;90.40
58638;DHT22;54976;51.510;7.522;2023-04-08T11:08:30;12.00;90.60
58638;DHT22;54976;51.510;7.522;2023-04-08T11:11:31;12.10;90.10
58638;DHT22;54976;51.510;7.522;2023-04-08T11:14:32;11.80;91.10
58638;DHT22;54976;51.510;7.522;2023-04-08T11:17:33;11.80;91.10
58638;DHT22;54976;51.510;7.522;2023-04-08T11:20:34;11.80;90.90
58638;DHT22;54976;51.510;7.522;2023-04-08T11:23:36;11.90;91.10
58638;DHT22;54976;51.510;7.522;2023-04-08T11:26:37;12.20;90.40
58638;DHT22;54976;51.510;7.522;2023-04-08T11:29:38;12.40;90.90
58638;DHT22;54976;51.510;7.522;2023-04-08T11:32:39;12.10;89.20
58638;DHT22;54976;51.510;7.522;2023-04-08T11:35:40;11.80;91.30
58638;DHT22;54976;51.510;7.522;2023-04-08T11:38:41;11.60;91.30
58638;DHT22;54976;51.510;7.522;2023-04-08T11:41:42;11.60;92.20
58638;DHT22;54976;51.510;7.522;2023-04-08T11:44:42;11.90;91.30
58638;DHT22;54976;51.510;7.522;2023-04-08T11:47:43;12.10;91.80
58638;DHT22;54976;51.510;7.522;2023-04-08T11:50:45;11.80;91.50
58638;DHT22;54976;51.510;7.522;2023-04-08T11:53:45;11.90;90.90
58638;DHT22;54976;51.510;7.522;2023-04-08T11:56:48;11.90;91.50
58638;DHT22;54976;51.510;7.522;2023-04-08T11:59:49;12.00;91.00
58638;DHT22;54976;51.510;7.522;2023-04-08T12:02:50;12.30;92.10
58638;DHT22;54976;51.510;7.522;2023-04-08T12:05:52;12.50;89.60
58638;DHT22;54976;51.510;7.522;2023-04-08T12:08:55;12.60;88.20
58638;DHT22;54976;51.510;7.522;2023-04-08T12:11:56;12.50;91.00
58638;DHT22;54976;51.510;7.522;2023-04-08T12:14:57;12.60;89.70
58638;DHT22;54976;51.510;7.522;2023-04-08T12:17:57;12.70;88.10
58638;DHT22;54976;51.510;7.522;2023-04-08T12:20:58;12.00;87.90
58638;DHT22;54976;51.510;7.522;2023-04-08T12:23:59;12.30;91.20
58638;DHT22;54976;51.510;7.522;2023-04-08T12:27:00;12.60;90.80
58638;DHT22;54976;51.510;7.522;2023-04-08T12:30:02;12.80;90.60
58638;DHT22;54976;51.510;7.522;2023-04-08T12:33:02;13.10;89.10
58638;DHT22;54976;51.510;7.522;2023-04-08T12:36:03;13.20;87.10
58638;DHT22;54976;51.510;7.522;2023-04-08T12:39:04;13.20;86.50
58638;DHT22;54976;51.510;7.522;2023-04-08T12:42:04;13.00;86.40
58638;DHT22;54976;51.510;7.522;2023-04-08T12:45:05;13.00;85.80
58638;DHT22;54976;51.510;7.522;2023-04-08T12:48:07;13.20;87.70
58638;DHT22;54976;51.510;7.522;2023-04-08T12:51:08;13.80;84.50
58638;DHT22;54976;51.510;7.522;2023-04-08T12:54:09;13.60;83.10
58638;DHT22;54976;51.510;7.522;2023-04-08T12:57:10;13.40;85.90
58638;DHT22;54976;51.510;7.522;2023-04-08T13:00:11;13.70;81.90
58638;DHT22;54976;51.510;7.522;2023-04-08T13:03:13;13.70;81.00
58638;DHT22;54976;51.510;7.522;2023-04-08T13:06:16;13.60;84.60
58638;DHT22;54976;51.510;7.522;2023-04-08T13:09:17;13.70;78.30
58638;DHT22;54976;51.510;7.522;2023-04-08T13:12:17;13.50;79.50
58638;DHT22;54976;51.510;7.522;2023-04-08T13:15:18;13.50;81.50
58638;DHT22;54976;51.510;7.522;2023-04-08T13:18:19;13.40;81.90
58638;DHT22;54976;51.510;7.522;2023-04-08T13:21:20;13.20;83.30
58638;DHT22;54976;51.510;7.522;2023-04-08T13:24:20;12.80;84.90
58638;DHT22;54976;51.510;7.522;2023-04-08T13:27:21;12.70;85.50
58638;DHT22;54976;51.510;7.522;2023-04-08T13:30:21;12.50;88.80
58638;DHT22;54976;51.510;7.522;2023-04-08T13:33:22;12.50;85.60
58638;DHT22;54976;51.510;7.522;2023-04-08T13:36:23;12.40;87.60
58638;DHT22;54976;51.510;7.522;2023-04-08T13:39:23;12.50;87.40
58638;DHT22;54976;51.510;7.522;2023-04-08T13:42:24;12.00;88.50
58638;DHT22;54976;51.510;7.522;2023-04-08T13:45:25;12.00;90.10
58638;DHT22;54976;51.510;7.522;2023-04-08T13:48:25;12.30;90.30
58638;DHT22;54976;51.510;7.522;2023-04-08T13:51:26;12.20;91.00
58638;DHT22;54976;51.510;7.522;2023-04-08T13:54:26;12.10;90.00
58638;DHT22;54976;51.510;7.522;2023-04-08T13:57:27;11.80;91.20
58638;DHT22;54976;51.510;7.522;2023-04-08T14:00:28;11.80;91.30
58638;DHT22;54976;51.510;7.522;2023-04-08T14:03:28;12.10;92.40
58638;DHT22;54976;51.510;7.522;2023-04-08T14:06:29;12.20;90.60
58638;DHT22;54976;51.510;7.522;2023-04-08T14:09:30;12.10;90.60
58638;DHT22;54976;51.510;7.522;2023-04-08T14:12:31;12.30;90.30
58638;DHT22;54976;51.510;7.522;2023-04-08T14:15:32;12.30;91.00
58638;DHT22;54976;51.510;7.522;2023-04-08T14:18:32;12.60;91.50
58638;DHT22;54976;51.510;7.522;2023-04-08T14:21:33;12.80;90.60
58638;DHT22;54976;51.510;7.522;2023-04-08T14:24:34;12.70;88.00
58638;DHT22;54976;51.510;7.522;2023-04-08T14:27:34;12.90;88.10
58638;DHT22;54976;51.510;7.522;2023-04-08T14:30:35;13.10;87.60
58638;DHT22;54976;51.510;7.522;2023-04-08T14:33:37;13.20;90.00
58638;DHT22;54976;51.510;7.522;2023-04-08T14:36:38;13.40;86.50
58638;DHT22;54976;51.510;7.522;2023-04-08T14:39:39;13.10;86.40
58638;DHT22;54976;51.510;7.522;2023-04-08T14:42:39;12.80;86.60
58638;DHT22;54976;51.510;7.522;2023-04-08T14:45:40;12.60;88.50
58638;DHT22;54976;51.510;7.522;2023-04-08T14:48:41;12.70;90.10
58638;DHT22;54976;51.510;7.522;2023-04-08T14:51:42;13.20;89.90
58638;DHT22;54976;51.510;7.522;2023-04-08T14:54:42;13.50;88.90
58638;DHT22;54976;51.510;7.522;2023-04-08T14:57:44;13.70;87.10
58638;DHT22;54976;51.510;7.522;2023-04-08T15:00:45;13.50;83.70
58638;DHT22;54976;51.510;7.522;2023-04-08T15:03:47;13.30;85.00
58638;DHT22;54976;51.510;7.522;2023-04-08T15:06:47;13.10;87.10
58638;DHT22;54976;51.510;7.522;2023-04-08T15:09:48;13.50;86.40
58638;DHT22;54976;51.510;7.522;2023-04-08T15:12:48;13.80;84.60
58638;DHT22;54976;51.510;7.522;2023-04-08T15:15:49;14.10;83.80
58638;DHT22;54976;51.510;7.522;2023-04-08T15:18:50;14.50;81.00
58638;DHT22;54976;51.510;7.522;2023-04-08T15:21:50;14.40;82.60
58638;DHT22;54976;51.510;7.522;2023-04-08T15:24:51;14.20;84.40
58638;DHT22;54976;51.510;7.522;2023-04-08T15:27:51;14.00;81.20
58638;DHT22;54976;51.510;7.522;2023-04-08T15:30:53;13.50;84.00
58638;DHT22;54976;51.510;7.522;2023-04-08T15:33:53;13.20;85.90
58638;DHT22;54976;51.510;7.522;2023-04-08T15:36:54;12.90;87.70
58638;DHT22;54976;51.510;7.522;2023-04-08T15:39:58;12.70;87.70
58638;DHT22;54976;51.510;7.522;2023-04-08T15:42:58;12.40;90.20
58638;DHT22;54976;51.510;7.522;2023-04-08T15:45:59;12.20;90.70
58638;DHT22;54976;51.510;7.522;2023-04-08T15:49:00;12.10;92.30
58638;DHT22;54976;51.510;7.522;2023-04-08T15:52:00;12.10;91.60
58638;DHT22;54976;51.510;7.522;2023-04-08T15:55:01;12.20;92.50
58638;DHT22;54976;51.510;7.522;2023-04-08T15:58:02;12.20;92.10
58638;DHT22;54976;51.510;7.522;2023-04-08T16:01:02;12.20;92.10
58638;DHT22;54976;51.510;7.522;2023-04-08T16:04:03;12.20;92.50
58638;DHT22;54976;51.510;7.522;2023-04-08T16:07:03;12.30;92.60
58638;DHT22;54976;51.510;7.522;2023-04-08T16:10:05;12.10;92.40
58638;DHT22;54976;51.510;7.522;2023-04-08T16:13:05;12.10;93.30
58638;DHT22;54976;51.510;7.522;2023-04-08T16:16:07;11.90;92.80
58638;DHT22;54976;51.510;7.522;2023-04-08T16:19:08;11.80;92.90
58638;DHT22;54976;51.510;7.522;2023-04-08T16:22:08;11.80;93.40
58638;DHT22;54976;51.510;7.522;2023-04-08T16:25:09;11.80;93.80
58638;DHT22;54976;51.510;7.522;2023-04-08T16:28:09;11.80;94.50
58638;DHT22;54976;51.510;7.522;2023-04-08T16:31:10;11.90;94.20
58638;DHT22;54976;51.510;7.522;2023-04-08T16:34:11;11.80;93.80
58638;DHT22;54976;51.510;7.522;2023-04-08T16:37:11;11.70;94.20
58638;DHT22;54976;51.510;7.522;2023-04-08T16:40:12;11.60;95.10
58638;DHT22;54976;51.510;7.522;2023-04-08T16:43:13;11.40;95.60
58638;DHT22;54976;51.510;7.522;2023-04-08T16:46:17;11.40;96.20
58638;DHT22;54976;51.510;7.522;2023-04-08T16:49:18;11.50;96.80
58638;DHT22;54976;51.510;7.522;2023-04-08T16:52:19;11.50;96.30
58638;DHT22;54976;51.510;7.522;2023-04-08T16:55:20;11.60;96.50
58638;DHT22;54976;51.510;7.522;2023-04-08T16:58:20;11.70;96.30
58638;DHT22;54976;51.510;7.522;2023-04-08T17:01:21;11.50;96.40
58638;DHT22;54976;51.510;7.522;2023-04-08T17:04:22;11.40;96.70
58638;DHT22;54976;51.510;7.522;2023-04-08T17:07:23;11.30;97.00
58638;DHT22;54976;51.510;7.522;2023-04-08T17:10:23;11.10;97.30
58638;DHT22;54976;51.510;7.522;2023-04-08T17:13:24;11.00;97.90
58638;DHT22;54976;51.510;7.522;2023-04-08T17:16:24;10.90;98.30
58638;DHT22;54976;51.510;7.522;2023-04-08T17:19:25;10.90;98.40
58638;DHT22;54976;51.510;7.522;2023-04-08T17:22:26;11.00;98.50
58638;DHT22;54976;51.510;7.522;2023-04-08T17:25:27;10.90;98.50
58638;DHT22;54976;51.510;7.522;2023-04-08T17:28:27;10.80;98.80
58638;DHT22;54976;51.510;7.522;2023-04-08T17:31:28;11.00;98.80
58638;DHT22;54976;51.510;7.522;2023-04-08T17:34:28;10.80;99.10
58638;DHT22;54976;51.510;7.522;2023-04-08T17:37:30;10.80;98.80
58638;DHT22;54976;51.510;7.522;2023-04-08T17:40:31;10.90;99.20
58638;DHT22;54976;51.510;7.522;2023-04-08T17:43:31;11.00;98.90
58638;DHT22;54976;51.510;7.522;2023-04-08T17:46:32;10.90;98.60
58638;DHT22;54976;51.510;7.522;2023-04-08T17:49:33;10.90;98.20
58638;DHT22;54976;51.510;7.522;2023-04-08T17:52:33;10.80;98.60
58638;DHT22;54976;51.510;7.522;2023-04-08T17:55:34;10.80;98.50
58638;DHT22;54976;51.510;7.522;2023-04-08T17:58:35;10.70;98.60
58638;DHT22;54976;51.510;7.522;2023-04-08T18:01:36;10.70;98.90
58638;DHT22;54976;51.510;7.522;2023-04-08T18:04:36;10.80;98.90
58638;DHT22;54976;51.510;7.522;2023-04-08T18:07:38;10.80;99.00
58638;DHT22;54976;51.510;7.522;2023-04-08T18:10:38;10.90;99.00
58638;DHT22;54976;51.510;7.522;2023-04-08T18:13:39;11.00;98.90
58638;DHT22;54976;51.510;7.522;2023-04-08T18:16:40;10.70;98.90
58638;DHT22;54976;51.510;7.522;2023-04-08T18:19:40;10.80;99.00
58638;DHT22;54976;51.510;7.522;2023-04-08T18:22:41;10.70;99.10
58638;DHT22;54976;51.510;7.522;2023-04-08T18:25:45;10.70;99.50
58638;DHT22;54976;51.510;7.522;2023-04-08T18:28:46;10.70;99.30
58638;DHT22;54976;51.510;7.522;2023-04-08T18:31:46;10.70;99.00
58638;DHT22;54976;51.510;7.522;2023-04-08T18:34:52;10.60;99.10
58638;DHT22;54976;51.510;7.522;2023-04-08T18:37:53;10.60;99.10
58638;DHT22;54976;51.510;7.522;2023-04-08T18:40:54;10.60;99.40
58638;DHT22;54976;51.510;7.522;2023-04-08T18:43:54;10.60;99.20
58638;DHT22;54976;51.510;7.522;2023-04-08T18:46:55;10.60;99.20
58638;DHT22;54976;51.510;7.522;2023-04-08T18:49:56;10.50;99.10
58638;DHT22;54976;51.510;7.522;2023-04-08T18:52:56;10.50;99.20
58638;DHT22;54976;51.510;7.522;2023-04-08T18:55:57;10.40;99.20
58638;DHT22;54976;51.510;7.522;2023-04-08T18:58:58;10.40;99.50
58638;DHT22;54976;51.510;7.522;2023-04-08T19:01:58;10.30;99.60
58638;DHT22;54976;51.510;7.522;2023-04-08T19:04:59;10.30;99.80
58638;DHT22;54976;51.510;7.522;2023-04-08T19:07:59;10.30;99.80
58638;DHT22;54976;51.510;7.522;2023-04-08T19:11:01;10.30;99.60
58638;DHT22;54976;51.510;7.522;2023-04-08T19:14:02;10.30;99.70
58638;DHT22;54976;51.510;7.522;2023-04-08T19:17:03;10.30;99.70
58638;DHT22;54976;51.510;7.522;2023-04-08T19:20:03;10.30;99.80
58638;DHT22;54976;51.510;7.522;2023-04-08T19:23:04;10.20;99.90